DAL1049 KLAX-KDEN
Flight info
| Callsign | DAL1049 |
|---|---|
| Flight time | 1h 48m |
| Altitude | 37000 |
| Route | ORCKA5 LAS J146 DICEE BUMMP SSKII4 |
| Aircraft | B738/M-SDE2E3FGHIRWXY/LB1 |
Departure
| Time | 2026-04-20 14:33 |
|---|---|
| Airport | Los Angeles International Airport (KLAX) |
Arrival
| Time | 2026-04-20 16:21 |
|---|---|
| Airport | Denver International Airport (KDEN) |
| Time | Latitude | Longitude | Altitude | Speed | Heading |
|---|---|---|---|---|---|
| 2026-04-20 14:07 | 33.94725 | -118.40195 | 117 ft | 0 kts | 84° |
| 2026-04-20 14:25 | 33.94724 | -118.40205 | 116 ft | 1 kts | 84° |
| 2026-04-20 14:26 | 33.94723 | -118.40218 | 116 ft | 2 kts | 75° |
| 2026-04-20 14:26 | 33.94716 | -118.40234 | 116 ft | 2 kts | 53° |
| 2026-04-20 14:26 | 33.94706 | -118.40247 | 116 ft | 2 kts | 34° |
| 2026-04-20 14:26 | 33.94691 | -118.40255 | 116 ft | 2 kts | 13° |
| 2026-04-20 14:27 | 33.94678 | -118.40256 | 116 ft | 0 kts | 356° |
| 2026-04-20 14:27 | 33.94671 | -118.40256 | 116 ft | 1 kts | 353° |
| 2026-04-20 14:29 | 33.94690 | -118.40258 | 116 ft | 6 kts | 353° |
| 2026-04-20 14:29 | 33.94754 | -118.40267 | 116 ft | 9 kts | 354° |
| 2026-04-20 14:29 | 33.94818 | -118.40283 | 116 ft | 8 kts | 342° |
| 2026-04-20 14:29 | 33.94873 | -118.40285 | 116 ft | 7 kts | 30° |
| 2026-04-20 14:30 | 33.94900 | -118.40235 | 116 ft | 6 kts | 69° |
| 2026-04-20 14:30 | 33.94920 | -118.40196 | 116 ft | 2 kts | 44° |
| 2026-04-20 14:31 | 33.94924 | -118.40191 | 116 ft | 4 kts | 40° |
| 2026-04-20 14:32 | 33.94984 | -118.40182 | 116 ft | 10 kts | 351° |
| 2026-04-20 14:32 | 33.95013 | -118.40241 | 116 ft | 8 kts | 262° |
| 2026-04-20 14:32 | 33.94992 | -118.40435 | 118 ft | 54 kts | 263° |
| 2026-04-20 14:32 | 33.94919 | -118.41161 | 123 ft | 118 kts | 264° |
| 2026-04-20 14:33 | 33.94795 | -118.42392 | 130 ft | 171 kts | 263° |
| 2026-04-20 14:33 | 33.94646 | -118.43860 | 772 ft | 173 kts | 263° |
| 2026-04-20 14:33 | 33.94471 | -118.45491 | 1252 ft | 194 kts | 263° |
| 2026-04-20 14:33 | 33.94293 | -118.47212 | 2080 ft | 190 kts | 260° |
| 2026-04-20 14:34 | 33.93685 | -118.48786 | 2529 ft | 202 kts | 227° |
| 2026-04-20 14:34 | 33.92396 | -118.49827 | 2936 ft | 217 kts | 201° |
| 2026-04-20 14:34 | 33.90789 | -118.50262 | 3384 ft | 231 kts | 180° |
| 2026-04-20 14:34 | 33.89134 | -118.49726 | 3801 ft | 245 kts | 147° |
| 2026-04-20 14:35 | 33.87968 | -118.48191 | 4365 ft | 252 kts | 119° |
| 2026-04-20 14:35 | 33.87410 | -118.46132 | 5027 ft | 257 kts | 95° |
| 2026-04-20 14:35 | 33.87751 | -118.44006 | 5662 ft | 263 kts | 62° |
| 2026-04-20 14:35 | 33.89035 | -118.42429 | 6285 ft | 268 kts | 29° |
| 2026-04-20 14:36 | 33.90850 | -118.41695 | 6948 ft | 272 kts | 12° |
| 2026-04-20 14:36 | 33.92848 | -118.41254 | 7628 ft | 277 kts | 11° |
| 2026-04-20 14:36 | 33.94820 | -118.40520 | 8258 ft | 283 kts | 31° |
| 2026-04-20 14:36 | 33.96322 | -118.38783 | 8986 ft | 284 kts | 57° |
| 2026-04-20 14:37 | 33.97404 | -118.36589 | 9849 ft | 280 kts | 63° |
| 2026-04-20 14:37 | 33.98425 | -118.34444 | 10811 ft | 274 kts | 61° |
| 2026-04-20 14:37 | 33.99466 | -118.32446 | 11727 ft | 268 kts | 59° |
| 2026-04-20 14:37 | 34.00519 | -118.30539 | 12457 ft | 268 kts | 58° |
| 2026-04-20 14:38 | 34.01598 | -118.28629 | 13025 ft | 275 kts | 58° |
| 2026-04-20 14:38 | 34.02753 | -118.26597 | 13439 ft | 290 kts | 58° |
| 2026-04-20 14:38 | 34.03930 | -118.24525 | 13820 ft | 305 kts | 58° |
| 2026-04-20 14:38 | 34.05197 | -118.22290 | 14216 ft | 321 kts | 58° |
| 2026-04-20 14:39 | 34.06454 | -118.20074 | 14980 ft | 321 kts | 58° |
| 2026-04-20 14:39 | 34.07728 | -118.17826 | 15501 ft | 331 kts | 57° |
| 2026-04-20 14:39 | 34.09068 | -118.15457 | 15878 ft | 345 kts | 57° |
| 2026-04-20 14:39 | 34.10439 | -118.13030 | 16210 ft | 360 kts | 57° |
| 2026-04-20 14:40 | 34.11895 | -118.10451 | 16555 ft | 375 kts | 57° |
| 2026-04-20 14:40 | 34.13377 | -118.07826 | 16842 ft | 390 kts | 57° |
| 2026-04-20 14:40 | 34.14936 | -118.05062 | 17112 ft | 405 kts | 57° |
| 2026-04-20 14:40 | 34.16557 | -118.02188 | 17424 ft | 418 kts | 57° |
| 2026-04-20 14:41 | 34.18183 | -117.99303 | 17965 ft | 423 kts | 57° |
| 2026-04-20 14:41 | 34.19855 | -117.96335 | 18586 ft | 427 kts | 56° |
| 2026-04-20 14:41 | 34.21519 | -117.93380 | 19223 ft | 429 kts | 56° |
| 2026-04-20 14:41 | 34.23206 | -117.90379 | 19792 ft | 433 kts | 56° |
| 2026-04-20 14:42 | 34.24896 | -117.87371 | 20359 ft | 438 kts | 56° |
| 2026-04-20 14:42 | 34.26606 | -117.84325 | 20889 ft | 442 kts | 56° |
| 2026-04-20 14:42 | 34.28337 | -117.81238 | 21485 ft | 444 kts | 56° |
| 2026-04-20 14:42 | 34.30067 | -117.78150 | 22001 ft | 448 kts | 55° |
| 2026-04-20 14:43 | 34.31819 | -117.75019 | 22511 ft | 451 kts | 55° |
| 2026-04-20 14:43 | 34.33578 | -117.71871 | 23002 ft | 455 kts | 55° |
| 2026-04-20 14:43 | 34.35341 | -117.68720 | 23518 ft | 458 kts | 54° |
| 2026-04-20 14:43 | 34.37172 | -117.65533 | 24009 ft | 461 kts | 53° |
| 2026-04-20 14:44 | 34.39042 | -117.62380 | 24524 ft | 464 kts | 53° |
| 2026-04-20 14:44 | 34.40947 | -117.59210 | 25057 ft | 467 kts | 53° |
| 2026-04-20 14:44 | 34.42850 | -117.56057 | 25588 ft | 469 kts | 52° |
| 2026-04-20 14:44 | 34.44780 | -117.52856 | 26060 ft | 473 kts | 52° |
| 2026-04-20 14:45 | 34.46723 | -117.49626 | 26521 ft | 476 kts | 52° |
| 2026-04-20 14:45 | 34.48685 | -117.46353 | 27053 ft | 478 kts | 53° |
| 2026-04-20 14:45 | 34.50635 | -117.43089 | 27488 ft | 481 kts | 53° |
| 2026-04-20 14:45 | 34.52584 | -117.39820 | 27906 ft | 485 kts | 53° |
| 2026-04-20 14:46 | 34.54562 | -117.36493 | 28356 ft | 487 kts | 53° |
| 2026-04-20 14:46 | 34.56530 | -117.33177 | 28728 ft | 490 kts | 53° |
| 2026-04-20 14:46 | 34.58535 | -117.29794 | 29238 ft | 490 kts | 53° |
| 2026-04-20 14:46 | 34.60496 | -117.26479 | 29942 ft | 485 kts | 53° |
| 2026-04-20 14:47 | 34.62456 | -117.23161 | 30595 ft | 482 kts | 53° |
| 2026-04-20 14:47 | 34.64398 | -117.19870 | 31175 ft | 480 kts | 53° |
| 2026-04-20 14:47 | 34.66357 | -117.16550 | 31745 ft | 478 kts | 53° |
| 2026-04-20 14:48 | 34.70201 | -117.10023 | 32859 ft | 474 kts | 53° |
| 2026-04-20 14:48 | 34.72098 | -117.06797 | 33354 ft | 473 kts | 53° |
| 2026-04-20 14:48 | 34.74003 | -117.03555 | 33867 ft | 471 kts | 52° |
| 2026-04-20 14:48 | 34.75901 | -117.00323 | 34471 ft | 468 kts | 52° |
| 2026-04-20 14:49 | 34.77795 | -116.97093 | 35079 ft | 464 kts | 52° |
| 2026-04-20 14:49 | 34.79645 | -116.93938 | 35594 ft | 462 kts | 52° |
| 2026-04-20 14:49 | 34.81494 | -116.90781 | 36160 ft | 459 kts | 52° |
| 2026-04-20 14:49 | 34.83355 | -116.87602 | 36625 ft | 457 kts | 52° |
| 2026-04-20 14:50 | 34.85185 | -116.84472 | 36995 ft | 457 kts | 52° |
| 2026-04-20 14:50 | 34.88897 | -116.78122 | 37016 ft | 467 kts | 52° |
| 2026-04-20 14:51 | 34.92750 | -116.71758 | 37018 ft | 466 kts | 48° |
| 2026-04-20 14:51 | 34.97024 | -116.65850 | 37029 ft | 464 kts | 44° |
| 2026-04-20 14:52 | 35.01447 | -116.60136 | 37023 ft | 463 kts | 44° |
| 2026-04-20 14:52 | 35.05883 | -116.54413 | 37019 ft | 463 kts | 44° |
| 2026-04-20 14:53 | 35.10306 | -116.48640 | 37011 ft | 462 kts | 44° |
| 2026-04-20 14:53 | 35.14668 | -116.42896 | 37011 ft | 461 kts | 44° |
| 2026-04-20 14:54 | 35.19031 | -116.37122 | 37011 ft | 461 kts | 44° |
| 2026-04-20 14:54 | 35.23369 | -116.31364 | 37018 ft | 462 kts | 45° |
| 2026-04-20 14:55 | 35.27741 | -116.25549 | 37021 ft | 462 kts | 45° |
| 2026-04-20 14:55 | 35.32091 | -116.19751 | 37020 ft | 462 kts | 44° |
| 2026-04-20 14:56 | 35.36431 | -116.13958 | 37019 ft | 462 kts | 44° |
| 2026-04-20 14:56 | 35.40771 | -116.08154 | 37022 ft | 461 kts | 44° |
| 2026-04-20 14:57 | 35.45119 | -116.02329 | 37029 ft | 460 kts | 44° |
| 2026-04-20 14:57 | 35.49435 | -115.96536 | 37041 ft | 460 kts | 44° |
| 2026-04-20 14:58 | 35.53765 | -115.90717 | 37047 ft | 460 kts | 44° |
| 2026-04-20 14:58 | 35.58085 | -115.84900 | 37053 ft | 460 kts | 44° |
| 2026-04-20 14:59 | 35.62408 | -115.79069 | 37054 ft | 460 kts | 44° |
| 2026-04-20 14:59 | 35.66702 | -115.73235 | 37054 ft | 460 kts | 45° |
| 2026-04-20 15:00 | 35.70974 | -115.67360 | 37065 ft | 461 kts | 45° |
| 2026-04-20 15:00 | 35.75251 | -115.61453 | 37075 ft | 460 kts | 44° |
| 2026-04-20 15:01 | 35.79851 | -115.55094 | 37083 ft | 459 kts | 45° |
| 2026-04-20 15:01 | 35.84259 | -115.48998 | 37097 ft | 459 kts | 44° |
| 2026-04-20 15:02 | 35.88755 | -115.42767 | 37081 ft | 450 kts | 44° |
| 2026-04-20 15:02 | 35.93163 | -115.36646 | 37228 ft | 446 kts | 44° |
| 2026-04-20 15:02 | 35.95299 | -115.33678 | 37692 ft | 444 kts | 45° |
| 2026-04-20 15:03 | 35.97496 | -115.30627 | 37828 ft | 448 kts | 44° |
| 2026-04-20 15:03 | 35.99732 | -115.27518 | 38169 ft | 448 kts | 44° |
| 2026-04-20 15:03 | 36.01978 | -115.24392 | 38551 ft | 447 kts | 44° |
| 2026-04-20 15:03 | 36.04253 | -115.21219 | 38969 ft | 445 kts | 44° |
| 2026-04-20 15:04 | 36.06392 | -115.17984 | 38992 ft | 451 kts | 49° |
| 2026-04-20 15:04 | 36.09798 | -115.10499 | 38988 ft | 466 kts | 62° |
| 2026-04-20 15:05 | 36.12254 | -115.02879 | 38982 ft | 467 kts | 65° |
| 2026-04-20 15:05 | 36.14574 | -114.95075 | 38973 ft | 466 kts | 65° |
| 2026-04-20 15:06 | 36.17007 | -114.86912 | 38977 ft | 467 kts | 65° |
| 2026-04-20 15:06 | 36.19486 | -114.78697 | 38976 ft | 466 kts | 65° |
| 2026-04-20 15:07 | 36.21991 | -114.70467 | 39026 ft | 465 kts | 65° |
| 2026-04-20 15:07 | 36.24472 | -114.62327 | 39027 ft | 464 kts | 65° |
| 2026-04-20 15:08 | 36.26897 | -114.54359 | 39019 ft | 463 kts | 65° |
| 2026-04-20 15:08 | 36.28094 | -114.50421 | 39242 ft | 462 kts | 64° |
| 2026-04-20 15:08 | 36.29210 | -114.46731 | 39999 ft | 452 kts | 64° |
| 2026-04-20 15:08 | 36.30309 | -114.43089 | 40293 ft | 450 kts | 65° |
| 2026-04-20 15:09 | 36.31439 | -114.39361 | 40375 ft | 453 kts | 65° |
| 2026-04-20 15:09 | 36.32553 | -114.35686 | 40510 ft | 456 kts | 65° |
| 2026-04-20 15:09 | 36.33672 | -114.31987 | 40656 ft | 457 kts | 65° |
| 2026-04-20 15:09 | 36.34776 | -114.28329 | 40819 ft | 458 kts | 66° |
| 2026-04-20 15:10 | 36.35891 | -114.24631 | 40977 ft | 458 kts | 66° |
| 2026-04-20 15:10 | 36.38137 | -114.17159 | 41052 ft | 463 kts | 66° |
| 2026-04-20 15:11 | 36.40403 | -114.09607 | 41054 ft | 468 kts | 66° |
| 2026-04-20 15:11 | 36.42663 | -114.02052 | 41053 ft | 469 kts | 66° |
| 2026-04-20 15:12 | 36.44944 | -113.94396 | 41081 ft | 469 kts | 66° |
| 2026-04-20 15:12 | 36.47233 | -113.86693 | 41100 ft | 469 kts | 66° |
| 2026-04-20 15:13 | 36.49538 | -113.78913 | 41128 ft | 469 kts | 66° |
| 2026-04-20 15:13 | 36.51788 | -113.71296 | 41145 ft | 469 kts | 66° |
| 2026-04-20 15:14 | 36.54057 | -113.63598 | 41171 ft | 471 kts | 66° |
| 2026-04-20 15:14 | 36.56314 | -113.55922 | 41182 ft | 471 kts | 66° |
| 2026-04-20 15:15 | 36.58555 | -113.48280 | 41187 ft | 470 kts | 66° |
| 2026-04-20 15:15 | 36.60817 | -113.40546 | 41190 ft | 471 kts | 66° |
| 2026-04-20 15:16 | 36.63058 | -113.32859 | 41215 ft | 473 kts | 67° |
| 2026-04-20 15:16 | 36.65299 | -113.25141 | 41210 ft | 473 kts | 67° |
| 2026-04-20 15:17 | 36.67528 | -113.17436 | 41220 ft | 473 kts | 67° |
| 2026-04-20 15:17 | 36.69785 | -113.09621 | 41217 ft | 474 kts | 67° |
| 2026-04-20 15:18 | 36.72031 | -113.01820 | 41225 ft | 473 kts | 67° |
| 2026-04-20 15:18 | 36.74252 | -112.94080 | 41218 ft | 474 kts | 67° |
| 2026-04-20 15:19 | 36.76495 | -112.86243 | 41225 ft | 474 kts | 67° |
| 2026-04-20 15:19 | 36.78732 | -112.78408 | 41221 ft | 475 kts | 67° |
| 2026-04-20 15:20 | 36.80970 | -112.70538 | 41231 ft | 475 kts | 68° |
| 2026-04-20 15:20 | 36.83197 | -112.62685 | 41235 ft | 476 kts | 68° |
| 2026-04-20 15:21 | 36.85431 | -112.54793 | 41237 ft | 477 kts | 68° |
| 2026-04-20 15:21 | 36.87710 | -112.46719 | 41255 ft | 478 kts | 67° |
| 2026-04-20 15:22 | 36.90060 | -112.38356 | 41242 ft | 477 kts | 68° |
| 2026-04-20 15:22 | 36.92379 | -112.30064 | 41260 ft | 477 kts | 68° |
| 2026-04-20 15:23 | 36.94688 | -112.21815 | 41252 ft | 479 kts | 68° |
| 2026-04-20 15:23 | 36.97006 | -112.13512 | 41257 ft | 480 kts | 68° |
| 2026-04-20 15:24 | 36.99404 | -112.04882 | 41235 ft | 480 kts | 69° |
| 2026-04-20 15:24 | 37.01794 | -111.96255 | 41243 ft | 479 kts | 68° |
| 2026-04-20 15:25 | 37.04158 | -111.87704 | 41239 ft | 481 kts | 69° |
| 2026-04-20 15:25 | 37.06397 | -111.79573 | 41235 ft | 480 kts | 69° |
| 2026-04-20 15:26 | 37.08755 | -111.70985 | 41233 ft | 480 kts | 69° |
| 2026-04-20 15:26 | 37.11126 | -111.62318 | 41234 ft | 480 kts | 69° |
| 2026-04-20 15:27 | 37.13478 | -111.53696 | 41232 ft | 479 kts | 69° |
| 2026-04-20 15:27 | 37.15817 | -111.45100 | 41236 ft | 481 kts | 69° |
| 2026-04-20 15:28 | 37.18164 | -111.36440 | 41235 ft | 480 kts | 69° |
| 2026-04-20 15:28 | 37.20472 | -111.27894 | 41220 ft | 480 kts | 70° |
| 2026-04-20 15:29 | 37.22998 | -111.19467 | 41209 ft | 480 kts | 64° |
| 2026-04-20 15:29 | 37.26172 | -111.11259 | 41232 ft | 479 kts | 61° |
| 2026-04-20 15:30 | 37.29514 | -111.03127 | 41234 ft | 479 kts | 61° |
| 2026-04-20 15:30 | 37.32834 | -110.94960 | 41241 ft | 480 kts | 61° |
| 2026-04-20 15:31 | 37.36118 | -110.86751 | 41242 ft | 480 kts | 62° |
| 2026-04-20 15:31 | 37.39356 | -110.78571 | 41239 ft | 481 kts | 62° |
| 2026-04-20 15:32 | 37.42384 | -110.70882 | 41233 ft | 480 kts | 62° |
| 2026-04-20 15:32 | 37.45335 | -110.63366 | 41239 ft | 480 kts | 62° |
| 2026-04-20 15:33 | 37.48338 | -110.55698 | 41246 ft | 481 kts | 62° |
| 2026-04-20 15:33 | 37.51386 | -110.47898 | 41253 ft | 481 kts | 62° |
| 2026-04-20 15:34 | 37.54413 | -110.40134 | 41262 ft | 483 kts | 62° |
| 2026-04-20 15:34 | 37.57478 | -110.32256 | 41265 ft | 481 kts | 63° |
| 2026-04-20 15:35 | 37.60478 | -110.24522 | 41264 ft | 482 kts | 63° |
| 2026-04-20 15:35 | 37.63584 | -110.16496 | 41264 ft | 482 kts | 63° |
| 2026-04-20 15:36 | 37.66763 | -110.08255 | 41267 ft | 481 kts | 63° |
| 2026-04-20 15:36 | 37.69913 | -110.00067 | 41283 ft | 482 kts | 63° |
| 2026-04-20 15:37 | 37.73064 | -109.91863 | 41293 ft | 483 kts | 63° |
| 2026-04-20 15:37 | 37.76233 | -109.83583 | 41292 ft | 483 kts | 63° |
| 2026-04-20 15:38 | 37.79383 | -109.75334 | 41284 ft | 483 kts | 63° |
| 2026-04-20 15:38 | 37.82529 | -109.67078 | 41285 ft | 483 kts | 63° |
| 2026-04-20 15:39 | 37.85616 | -109.58948 | 41286 ft | 483 kts | 63° |
| 2026-04-20 15:39 | 37.88695 | -109.50818 | 41292 ft | 485 kts | 63° |
| 2026-04-20 15:40 | 37.91745 | -109.42744 | 41292 ft | 484 kts | 63° |
| 2026-04-20 15:40 | 37.94855 | -109.34487 | 41279 ft | 484 kts | 64° |
| 2026-04-20 15:41 | 37.97958 | -109.26239 | 41297 ft | 486 kts | 64° |
| 2026-04-20 15:41 | 38.01068 | -109.17938 | 41304 ft | 484 kts | 64° |
| 2026-04-20 15:42 | 38.04134 | -109.09733 | 41114 ft | 478 kts | 64° |
| 2026-04-20 15:42 | 38.05692 | -109.05553 | 40639 ft | 476 kts | 63° |
| 2026-04-20 15:42 | 38.07208 | -109.01481 | 40238 ft | 472 kts | 63° |
| 2026-04-20 15:42 | 38.08734 | -108.97378 | 39830 ft | 467 kts | 63° |
| 2026-04-20 15:43 | 38.10243 | -108.93315 | 39352 ft | 464 kts | 63° |
| 2026-04-20 15:43 | 38.11759 | -108.89327 | 38703 ft | 462 kts | 62° |
| 2026-04-20 15:43 | 38.13317 | -108.85344 | 37810 ft | 464 kts | 62° |
| 2026-04-20 15:43 | 38.14910 | -108.81327 | 37327 ft | 457 kts | 62° |
| 2026-04-20 15:44 | 38.16461 | -108.77425 | 37326 ft | 457 kts | 62° |
| 2026-04-20 15:44 | 38.19479 | -108.69799 | 37340 ft | 468 kts | 62° |
| 2026-04-20 15:45 | 38.22428 | -108.62301 | 37362 ft | 466 kts | 62° |
| 2026-04-20 15:45 | 38.25552 | -108.54307 | 37372 ft | 465 kts | 62° |
| 2026-04-20 15:46 | 38.28507 | -108.46717 | 37389 ft | 467 kts | 62° |
| 2026-04-20 15:46 | 38.31387 | -108.39298 | 37414 ft | 467 kts | 62° |
| 2026-04-20 15:47 | 38.34256 | -108.31892 | 37421 ft | 467 kts | 63° |
| 2026-04-20 15:47 | 38.37121 | -108.24475 | 37421 ft | 466 kts | 63° |
| 2026-04-20 15:48 | 38.40026 | -108.16939 | 37417 ft | 467 kts | 63° |
| 2026-04-20 15:48 | 38.43176 | -108.08744 | 37417 ft | 468 kts | 63° |
| 2026-04-20 15:49 | 38.46285 | -108.00637 | 37359 ft | 468 kts | 63° |
| 2026-04-20 15:49 | 38.49297 | -107.92710 | 37290 ft | 469 kts | 63° |
| 2026-04-20 15:50 | 38.52155 | -107.85135 | 37246 ft | 468 kts | 63° |
| 2026-04-20 15:50 | 38.55035 | -107.77480 | 37361 ft | 469 kts | 63° |
| 2026-04-20 15:51 | 38.58019 | -107.69531 | 37445 ft | 469 kts | 63° |
| 2026-04-20 15:51 | 38.60993 | -107.61586 | 37482 ft | 471 kts | 63° |
| 2026-04-20 15:52 | 38.64064 | -107.53360 | 37504 ft | 469 kts | 63° |
| 2026-04-20 15:52 | 38.67116 | -107.45187 | 37515 ft | 470 kts | 63° |
| 2026-04-20 15:53 | 38.71749 | -107.32958 | 37509 ft | 471 kts | 63° |
| 2026-04-20 15:53 | 38.74877 | -107.24696 | 37512 ft | 473 kts | 63° |
| 2026-04-20 15:54 | 38.78009 | -107.16385 | 37506 ft | 471 kts | 63° |
| 2026-04-20 15:54 | 38.79534 | -107.12328 | 37397 ft | 469 kts | 63° |
| 2026-04-20 15:54 | 38.81025 | -107.08352 | 36674 ft | 469 kts | 63° |
| 2026-04-20 15:55 | 38.82515 | -107.04376 | 35846 ft | 472 kts | 64° |
| 2026-04-20 15:55 | 38.84053 | -107.00265 | 35130 ft | 473 kts | 64° |
| 2026-04-20 15:55 | 38.85596 | -106.96134 | 34345 ft | 476 kts | 64° |
| 2026-04-20 15:55 | 38.87118 | -106.92053 | 33438 ft | 479 kts | 64° |
| 2026-04-20 15:56 | 38.88664 | -106.87901 | 32518 ft | 481 kts | 64° |
| 2026-04-20 15:56 | 38.90213 | -106.83736 | 31607 ft | 482 kts | 64° |
| 2026-04-20 15:56 | 38.91767 | -106.79549 | 30888 ft | 472 kts | 64° |
| 2026-04-20 15:56 | 38.93309 | -106.75387 | 30244 ft | 468 kts | 64° |
| 2026-04-20 15:57 | 38.94844 | -106.71239 | 29532 ft | 464 kts | 64° |
| 2026-04-20 15:57 | 38.96349 | -106.67165 | 28856 ft | 453 kts | 64° |
| 2026-04-20 15:57 | 38.97803 | -106.63222 | 28206 ft | 448 kts | 64° |
| 2026-04-20 15:57 | 38.99252 | -106.59292 | 27591 ft | 444 kts | 64° |
| 2026-04-20 15:58 | 39.00674 | -106.55426 | 27471 ft | 430 kts | 64° |
| 2026-04-20 15:58 | 39.01996 | -106.51822 | 27474 ft | 432 kts | 64° |
| 2026-04-20 15:58 | 39.03310 | -106.48227 | 27471 ft | 434 kts | 64° |
| 2026-04-20 15:58 | 39.04610 | -106.44669 | 27467 ft | 435 kts | 64° |
| 2026-04-20 15:59 | 39.05889 | -106.41163 | 27469 ft | 433 kts | 64° |
| 2026-04-20 15:59 | 39.07159 | -106.37678 | 27224 ft | 429 kts | 64° |
| 2026-04-20 15:59 | 39.08437 | -106.34168 | 26721 ft | 425 kts | 65° |
| 2026-04-20 15:59 | 39.09680 | -106.30751 | 26158 ft | 423 kts | 65° |
| 2026-04-20 16:00 | 39.10939 | -106.27284 | 25526 ft | 422 kts | 65° |
| 2026-04-20 16:00 | 39.12194 | -106.23827 | 25007 ft | 419 kts | 65° |
| 2026-04-20 16:00 | 39.13436 | -106.20400 | 24501 ft | 413 kts | 65° |
| 2026-04-20 16:00 | 39.14648 | -106.17052 | 23806 ft | 409 kts | 65° |
| 2026-04-20 16:01 | 39.15843 | -106.13747 | 23472 ft | 401 kts | 65° |
| 2026-04-20 16:01 | 39.17012 | -106.10504 | 23445 ft | 401 kts | 65° |
| 2026-04-20 16:01 | 39.18200 | -106.07197 | 23439 ft | 406 kts | 66° |
| 2026-04-20 16:01 | 39.19393 | -106.03874 | 23409 ft | 403 kts | 66° |
| 2026-04-20 16:02 | 39.20570 | -106.00591 | 23021 ft | 399 kts | 66° |
| 2026-04-20 16:02 | 39.21743 | -105.97315 | 22400 ft | 399 kts | 65° |
| 2026-04-20 16:02 | 39.22901 | -105.94080 | 21835 ft | 397 kts | 65° |
| 2026-04-20 16:02 | 39.24070 | -105.90813 | 21464 ft | 391 kts | 65° |
| 2026-04-20 16:03 | 39.25207 | -105.87645 | 21423 ft | 392 kts | 65° |
| 2026-04-20 16:03 | 39.26377 | -105.84396 | 21422 ft | 394 kts | 65° |
| 2026-04-20 16:03 | 39.27542 | -105.81163 | 21287 ft | 397 kts | 65° |
| 2026-04-20 16:03 | 39.28729 | -105.77866 | 20962 ft | 391 kts | 65° |
| 2026-04-20 16:04 | 39.29885 | -105.74651 | 20474 ft | 387 kts | 65° |
| 2026-04-20 16:04 | 39.31047 | -105.71416 | 19903 ft | 386 kts | 65° |
| 2026-04-20 16:04 | 39.32180 | -105.68256 | 19478 ft | 381 kts | 65° |
| 2026-04-20 16:04 | 39.33302 | -105.65137 | 19416 ft | 369 kts | 64° |
| 2026-04-20 16:05 | 39.34428 | -105.62041 | 19411 ft | 369 kts | 64° |
| 2026-04-20 16:05 | 39.35559 | -105.58952 | 19326 ft | 368 kts | 64° |
| 2026-04-20 16:05 | 39.36657 | -105.55952 | 19000 ft | 362 kts | 64° |
| 2026-04-20 16:05 | 39.37759 | -105.52935 | 18508 ft | 361 kts | 64° |
| 2026-04-20 16:06 | 39.38854 | -105.49933 | 17967 ft | 361 kts | 64° |
| 2026-04-20 16:06 | 39.39939 | -105.46952 | 17578 ft | 356 kts | 63° |
| 2026-04-20 16:06 | 39.41006 | -105.44038 | 17319 ft | 346 kts | 62° |
| 2026-04-20 16:06 | 39.42157 | -105.41309 | 17216 ft | 334 kts | 57° |
| 2026-04-20 16:07 | 39.43443 | -105.38767 | 17215 ft | 330 kts | 53° |
| 2026-04-20 16:07 | 39.44794 | -105.36305 | 17209 ft | 331 kts | 52° |
| 2026-04-20 16:07 | 39.46148 | -105.33881 | 17210 ft | 330 kts | 53° |
| 2026-04-20 16:07 | 39.47527 | -105.31401 | 17175 ft | 328 kts | 53° |
| 2026-04-20 16:08 | 39.48860 | -105.28979 | 16949 ft | 322 kts | 53° |
| 2026-04-20 16:08 | 39.50170 | -105.26574 | 16584 ft | 320 kts | 53° |
| 2026-04-20 16:08 | 39.51493 | -105.24136 | 16176 ft | 325 kts | 53° |
| 2026-04-20 16:08 | 39.52821 | -105.21681 | 15763 ft | 323 kts | 53° |
| 2026-04-20 16:09 | 39.54120 | -105.19154 | 15329 ft | 322 kts | 57° |
| 2026-04-20 16:09 | 39.55241 | -105.16475 | 15137 ft | 315 kts | 62° |
| 2026-04-20 16:09 | 39.56239 | -105.13731 | 15118 ft | 319 kts | 64° |
| 2026-04-20 16:09 | 39.57233 | -105.10914 | 15114 ft | 321 kts | 64° |
| 2026-04-20 16:10 | 39.58208 | -105.08182 | 15094 ft | 321 kts | 64° |
| 2026-04-20 16:10 | 39.59192 | -105.05461 | 15036 ft | 319 kts | 63° |
| 2026-04-20 16:10 | 39.60216 | -105.02642 | 15024 ft | 319 kts | 63° |
| 2026-04-20 16:10 | 39.61264 | -104.99765 | 15016 ft | 319 kts | 63° |
| 2026-04-20 16:11 | 39.62270 | -104.97000 | 15016 ft | 319 kts | 63° |
| 2026-04-20 16:11 | 39.63269 | -104.94257 | 15017 ft | 319 kts | 63° |
| 2026-04-20 16:11 | 39.64275 | -104.91494 | 14963 ft | 318 kts | 63° |
| 2026-04-20 16:11 | 39.65287 | -104.88711 | 14664 ft | 313 kts | 63° |
| 2026-04-20 16:12 | 39.66292 | -104.85946 | 14196 ft | 314 kts | 63° |
| 2026-04-20 16:12 | 39.67279 | -104.83231 | 13791 ft | 312 kts | 63° |
| 2026-04-20 16:12 | 39.68208 | -104.80671 | 13481 ft | 307 kts | 63° |
| 2026-04-20 16:12 | 39.69124 | -104.78185 | 13147 ft | 304 kts | 61° |
| 2026-04-20 16:13 | 39.70250 | -104.75902 | 13021 ft | 294 kts | 49° |
| 2026-04-20 16:13 | 39.71631 | -104.73970 | 13017 ft | 294 kts | 42° |
| 2026-04-20 16:13 | 39.73170 | -104.72076 | 12864 ft | 290 kts | 41° |
| 2026-04-20 16:13 | 39.74619 | -104.70303 | 12533 ft | 288 kts | 42° |
| 2026-04-20 16:14 | 39.76063 | -104.68484 | 12183 ft | 287 kts | 43° |
| 2026-04-20 16:14 | 39.77392 | -104.66567 | 11837 ft | 287 kts | 52° |
| 2026-04-20 16:14 | 39.78227 | -104.64231 | 11493 ft | 288 kts | 78° |
| 2026-04-20 16:14 | 39.78363 | -104.61673 | 11262 ft | 283 kts | 89° |
| 2026-04-20 16:15 | 39.78321 | -104.59145 | 11167 ft | 272 kts | 91° |
| 2026-04-20 16:15 | 39.78281 | -104.56746 | 11089 ft | 262 kts | 90° |
| 2026-04-20 16:15 | 39.78265 | -104.54406 | 10976 ft | 259 kts | 89° |
| 2026-04-20 16:15 | 39.78265 | -104.52078 | 10633 ft | 259 kts | 89° |
| 2026-04-20 16:16 | 39.78274 | -104.49724 | 10206 ft | 260 kts | 89° |
| 2026-04-20 16:16 | 39.78335 | -104.47427 | 9950 ft | 246 kts | 83° |
| 2026-04-20 16:16 | 39.78766 | -104.45384 | 9572 ft | 232 kts | 60° |
| 2026-04-20 16:16 | 39.79781 | -104.43850 | 9283 ft | 215 kts | 36° |
| 2026-04-20 16:17 | 39.81015 | -104.42791 | 9020 ft | 212 kts | 25° |
| 2026-04-20 16:17 | 39.82405 | -104.42217 | 8751 ft | 209 kts | 2° |
| 2026-04-20 16:17 | 39.83839 | -104.42368 | 8491 ft | 206 kts | 344° |
| 2026-04-20 16:17 | 39.85178 | -104.42949 | 8224 ft | 203 kts | 330° |
| 2026-04-20 16:18 | 39.86293 | -104.44018 | 7978 ft | 199 kts | 310° |
| 2026-04-20 16:18 | 39.87075 | -104.45489 | 7726 ft | 197 kts | 296° |
| 2026-04-20 16:18 | 39.87545 | -104.47115 | 7484 ft | 183 kts | 278° |
| 2026-04-20 16:18 | 39.87624 | -104.48675 | 7294 ft | 167 kts | 269° |
| 2026-04-20 16:19 | 39.87629 | -104.50136 | 7096 ft | 160 kts | 269° |
| 2026-04-20 16:19 | 39.87643 | -104.51584 | 6886 ft | 157 kts | 269° |
| 2026-04-20 16:19 | 39.87656 | -104.53001 | 6679 ft | 155 kts | 269° |
| 2026-04-20 16:19 | 39.87665 | -104.54385 | 6475 ft | 154 kts | 269° |
| 2026-04-20 16:20 | 39.87678 | -104.55782 | 6233 ft | 155 kts | 269° |
| 2026-04-20 16:20 | 39.87686 | -104.57170 | 6024 ft | 153 kts | 269° |
| 2026-04-20 16:20 | 39.87698 | -104.58551 | 5812 ft | 151 kts | 269° |
| 2026-04-20 16:20 | 39.87712 | -104.60008 | 5586 ft | 151 kts | 270° |
| 2026-04-20 16:21 | 39.87719 | -104.61495 | 5365 ft | 151 kts | 270° |
| 2026-04-20 16:21 | 39.87735 | -104.62923 | 5286 ft | 127 kts | 270° |
| 2026-04-20 16:21 | 39.87737 | -104.63975 | 5320 ft | 84 kts | 269° |
| 2026-04-20 16:21 | 39.87703 | -104.64465 | 5343 ft | 33 kts | 250° |
| 2026-04-20 16:22 | 39.87647 | -104.64638 | 5351 ft | 10 kts | 245° |
| 2026-04-20 16:22 | 39.87614 | -104.64724 | 5351 ft | 9 kts | 242° |
| 2026-04-20 16:22 | 39.87587 | -104.64811 | 5351 ft | 9 kts | 255° |
| 2026-04-20 16:22 | 39.87582 | -104.64915 | 5349 ft | 11 kts | 269° |
| 2026-04-20 16:23 | 39.87581 | -104.65029 | 5347 ft | 12 kts | 270° |
| 2026-04-20 16:23 | 39.87583 | -104.65164 | 5343 ft | 15 kts | 272° |
| 2026-04-20 16:23 | 39.87585 | -104.65340 | 5338 ft | 21 kts | 270° |
| 2026-04-20 16:23 | 39.87586 | -104.65540 | 5336 ft | 20 kts | 270° |
| 2026-04-20 16:24 | 39.87588 | -104.65739 | 5335 ft | 20 kts | 269° |
| 2026-04-20 16:24 | 39.87589 | -104.65929 | 5333 ft | 20 kts | 270° |
| 2026-04-20 16:24 | 39.87591 | -104.66106 | 5333 ft | 18 kts | 270° |
| 2026-04-20 16:24 | 39.87566 | -104.66201 | 5335 ft | 8 kts | 209° |
| 2026-04-20 16:25 | 39.87479 | -104.66215 | 5340 ft | 18 kts | 180° |
| 2026-04-20 16:25 | 39.87329 | -104.66216 | 5348 ft | 19 kts | 180° |
| 2026-04-20 16:25 | 39.87157 | -104.66219 | 5362 ft | 25 kts | 180° |
| 2026-04-20 16:25 | 39.86949 | -104.66221 | 5379 ft | 29 kts | 180° |
| 2026-04-20 16:26 | 39.86719 | -104.66224 | 5396 ft | 30 kts | 180° |
| 2026-04-20 16:26 | 39.86535 | -104.66231 | 5406 ft | 12 kts | 197° |
| 2026-04-20 16:26 | 39.86486 | -104.66316 | 5409 ft | 14 kts | 231° |
| 2026-04-20 16:26 | 39.86374 | -104.66342 | 5413 ft | 20 kts | 180° |
| 2026-04-20 16:27 | 39.86199 | -104.66344 | 5420 ft | 21 kts | 178° |
| 2026-04-20 16:27 | 39.86044 | -104.66347 | 5424 ft | 19 kts | 180° |
| 2026-04-20 16:27 | 39.85907 | -104.66348 | 5426 ft | 16 kts | 180° |
| 2026-04-20 16:27 | 39.85796 | -104.66351 | 5428 ft | 13 kts | 180° |
| 2026-04-20 16:28 | 39.85703 | -104.66361 | 5428 ft | 10 kts | 211° |
| 2026-04-20 16:28 | 39.85679 | -104.66444 | 5428 ft | 9 kts | 274° |
| 2026-04-20 16:28 | 39.85710 | -104.66511 | 5428 ft | 8 kts | 291° |
| 2026-04-20 16:28 | 39.85715 | -104.66591 | 5426 ft | 9 kts | 270° |
| 2026-04-20 16:29 | 39.85716 | -104.66660 | 5425 ft | 5 kts | 277° |
| 2026-04-20 16:29 | 39.85739 | -104.66687 | 5424 ft | 4 kts | 348° |
| 2026-04-20 16:29 | 39.85748 | -104.66688 | 5424 ft | 0 kts | 359° |